Melbourne, FL (32904)

1:46 AM EST on February 09, 2016 (GMT -0500)
Crystal Lakes West | | Change Station
CLOSE
Current Station
Personal Weather Station
Location: West Melbourne, FL
Elevation: 28 ft
Nearby Weather Stations

Elev 28 ft 28.06 °N, 80.68 °W | Updated 11 seconds ago

Mostly Cloudy
Mostly Cloudy
55.9 °F
Feels Like 55.9 °F
N
8.3
Wind Variable Wind from WNW
Gusts 17.4 mph

Today
High -- | Low -- °F
--% Chance of Precip.
Yesterday
High -- | Low -- °F
Precip. -- in
Pressure 29.90 in
Visibility 6.0 miles
Clouds Few 1600 ft
Mostly Cloudy 2700 ft
Overcast 7500 ft
Dew Point 53 °F
Humidity 91%
Rainfall 0.00 in
Snow Depth Not available.
7:05 AM 6:08 PM
New Moon, 1% visible
SPECI KMLB 090637Z AUTO 28017G24KT 6SM -RA BR FEW016 BKN027 OVC075 13/11 A2990 RMK AO2 WSHFT 0623 RAB28 P0002 T01330111
Pressure 29.90 in
Visibility 6.0 miles
Clouds Few 1600 ft
Mostly Cloudy 2700 ft
Overcast 7500 ft
Dew Point 53 °F
Humidity 91%
Rainfall 0.00 in
Snow Depth Not available.
7:05 AM 6:08 PM
New Moon, 1% visible
SPECI KMLB 090637Z AUTO 28017G24KT 6SM -RA BR FEW016 BKN027 OVC075 13/11 A2990 RMK AO2 WSHFT 0623 RAB28 P0002 T01330111

10-Day Weather Forecast

Almanac

Astronomy

Feb. 09, 2016 Rise Set
Actual Time
Civil Twilight
Nautical Twilight
Astronomical Twilight
Moon
Length of Visible Light
Length of Day
Tomorrow will be .
, % of the Moon is Illuminated

Today's Extremes

State Highs State Lows

Community

WunderPhotos

Upload Photos

1,891,571 photos uploaded!

WunderBlog® & News

Nearby

Air Quality

  Air Quality AQ Index Pollutant
Not available.

Snow Depth

Station Depth Elevation

Earthquake Activity

City Distance Mag. Time & Date
Minimum magnitude displayed is 2.5.

Coastal Water Temperatures

Place Temperature

Stations

Nearby Weather Stations

Station Location Temp. Windchill Dew Point Humidity Wind Precip. Elev Updated Type
                   

Watches & Warnings

There are currently no watches in effect.